Time;durP1;ratioP1;P1;durP2;ratioP2;P2;SDS_P1;SDS_P2;PMS_P1;PMS_P2;Temp;Humidity;BMP_temperature;BMP_pressure;BME280_temperature;BME280_humidity;BME280_pressure;Samples;Min_cycle;Max_cycle;Signal;HPM_P1;HPM_P2
2022/11/10 00:00:33;;;;;;;;;14.00;14.00;;;;;11.48;72.46;101214.09;5081479;27;45511;-75
2022/11/10 00:03:01;;;;;;;;;16.75;16.75;;;;;11.47;72.81;101211.53;5083376;27;45313;-78
2022/11/10 00:05:26;;;;;;;;;14.00;14.00;;;;;11.45;73.01;101215.97;5080178;27;45305;-77
2022/11/10 00:07:51;;;;;;;;;12.75;12.75;;;;;11.40;72.49;101210.84;5080169;27;45260;-78
2022/11/10 00:10:17;;;;;;;;;17.75;17.75;;;;;11.40;72.90;101219.63;5079280;27;46352;-81
2022/11/10 00:12:42;;;;;;;;;12.75;12.75;;;;;11.41;72.61;101225.75;5076001;27;45385;-80
2022/11/10 00:17:54;;;;;;;;;17.00;17.00;;;;;11.37;72.54;101221.50;5078626;28;45400;-71
2022/11/10 00:20:19;;;;;;;;;17.25;17.25;;;;;11.34;73.15;101227.75;5071557;28;46171;-77
2022/11/10 00:22:44;;;;;;;;;17.50;17.50;;;;;11.29;73.71;101228.78;5057236;28;45359;-81
2022/11/10 00:25:11;;;;;;;;;15.00;15.00;;;;;11.30;73.22;101241.91;5058823;28;45445;-74
2022/11/10 00:27:37;;;;;;;;;18.50;17.75;;;;;11.25;73.69;101244.69;5075499;28;45342;-79
2022/11/10 00:30:03;;;;;;;;;18.00;18.00;;;;;11.23;73.43;101246.50;5077878;27;45415;-74
2022/11/10 00:32:28;;;;;;;;;17.00;17.00;;;;;11.21;73.73;101242.22;5078631;27;45235;-78
2022/11/10 00:34:53;;;;;;;;;19.00;19.00;;;;;11.17;73.90;101240.59;5075725;28;45259;-76
2022/11/10 00:37:19;;;;;;;;;15.25;15.25;;;;;11.19;73.64;101250.16;5077036;27;45291;-77
2022/11/10 00:39:44;;;;;;;;;18.50;18.50;;;;;11.14;74.11;101257.34;5058708;27;45365;-75
2022/11/10 00:42:10;;;;;;;;;20.00;19.00;;;;;11.14;73.82;101254.72;5054263;28;45326;-75
2022/11/10 00:44:35;;;;;;;;;22.50;22.50;;;;;11.13;74.03;101254.75;5055125;28;45383;-76
2022/11/10 00:47:00;;;;;;;;;17.50;17.50;;;;;11.09;74.37;101254.84;5054874;28;45402;-80
2022/11/10 00:49:26;;;;;;;;;19.75;19.75;;;;;11.07;74.05;101254.03;5055860;28;46302;-73
2022/11/10 00:51:52;;;;;;;;;18.00;18.00;;;;;10.94;74.36;101240.41;5054990;28;45323;-73
2022/11/10 00:54:17;;;;;;;;;15.25;15.25;;;;;11.05;74.57;101255.00;5054001;28;45687;-75
2022/11/10 00:56:43;;;;;;;;;17.25;17.00;;;;;11.00;74.37;101255.13;5057447;28;45561;-75
2022/11/10 00:59:08;;;;;;;;;17.50;17.50;;;;;10.98;74.87;101256.94;5055949;28;45497;-74
2022/11/10 01:01:34;;;;;;;;;19.25;19.25;;;;;10.98;74.46;101277.16;5058529;28;45763;-74
2022/11/10 01:03:59;;;;;;;;;20.25;20.25;;;;;10.88;74.82;101264.28;5055828;28;45432;-74
2022/11/10 01:06:25;;;;;;;;;20.00;20.00;;;;;10.87;74.83;101265.19;5055790;28;45367;-77
2022/11/10 01:08:50;;;;;;;;;19.50;19.25;;;;;10.94;74.95;101279.00;5056704;28;45379;-80
2022/11/10 01:11:21;;;;;;;;;19.25;19.25;;;;;10.91;74.89;101269.47;5056195;28;45370;-77
2022/11/10 01:13:49;;;;;;;;;24.50;23.50;;;;;10.93;75.25;101279.91;5055094;28;45278;-75
2022/11/10 01:16:18;;;;;;;;;20.25;20.25;;;;;10.90;75.07;101273.00;5056092;28;45436;-75
2022/11/10 01:18:47;;;;;;;;;17.75;17.75;;;;;10.90;75.00;101283.53;5087978;27;47449;-77
2022/11/10 01:21:13;;;;;;;;;20.00;20.00;;;;;10.84;75.43;101275.81;5057370;28;45240;-72
2022/11/10 01:23:38;;;;;;;;;22.25;21.75;;;;;10.84;75.18;101286.34;5056465;28;45356;-82
2022/11/10 01:26:05;;;;;;;;;22.75;22.75;;;;;10.80;75.72;101282.09;5056531;28;45268;-79
2022/11/10 01:28:31;;;;;;;;;23.50;23.50;;;;;10.79;75.28;101283.00;5056847;28;45855;-74
2022/11/10 01:31:02;;;;;;;;;24.50;24.50;;;;;10.78;75.64;101287.38;5054841;28;46121;-74
2022/11/10 01:33:28;;;;;;;;;21.75;21.00;;;;;10.76;75.74;101296.25;5054980;28;45339;-75
2022/11/10 01:35:54;;;;;;;;;24.50;24.50;;;;;10.75;75.97;101294.50;5055401;28;45313;-72
2022/11/10 01:38:19;;;;;;;;;21.25;21.25;;;;;10.73;75.63;101298.97;5055306;28;45278;-77
2022/11/10 01:40:45;;;;;;;;;22.25;22.25;;;;;10.72;75.75;101299.88;5057012;28;45457;-81
2022/11/10 01:43:13;;;;;;;;;20.00;20.00;;;;;10.66;75.88;101299.13;5057190;28;45759;-83
2022/11/10 01:45:53;;;;;;;;;15.00;15.00;;;;;10.65;76.08;101291.28;5056382;28;45291;-74
2022/11/10 01:48:33;;;;;;;;;20.25;20.25;;;;;10.66;75.76;101309.66;5054686;28;45526;-78
2022/11/10 01:51:04;;;;;;;;;20.00;19.75;;;;;10.59;76.31;101300.19;5054673;28;45392;-74
2022/11/10 01:53:34;;;;;;;;;19.25;19.25;;;;;10.60;76.15;101296.69;5054601;28;45151;-73
2022/11/10 01:56:02;;;;;;;;;19.00;19.00;;;;;10.57;76.60;101304.63;5055386;28;45624;-74
2022/11/10 01:58:38;;;;;;;;;22.50;21.00;;;;;10.57;76.42;101312.53;5054455;28;45423;-77
2022/11/10 02:01:05;;;;;;;;;21.00;21.00;;;;;10.56;76.49;101313.44;5054440;28;45270;-76
2022/11/10 02:03:39;;;;;;;;;20.25;20.25;;;;;10.54;76.52;101315.25;5055278;28;45334;-76
2022/11/10 02:06:06;;;;;;;;;17.25;16.50;;;;;10.55;76.67;101316.97;5056170;28;45268;-75
2022/11/10 02:08:32;;;;;;;;;18.75;18.25;;;;;10.53;76.83;101321.41;5056464;28;45463;-76
2022/11/10 02:10:58;;;;;;;;;19.50;18.75;;;;;10.51;76.56;101317.97;5073422;28;45388;-76
2022/11/10 02:13:24;;;;;;;;;21.00;19.75;;;;;10.51;76.87;101328.50;5055288;28;45326;-76
2022/11/10 02:15:49;;;;;;;;;19.75;19.75;;;;;10.49;76.66;101323.28;5062160;28;45331;-79
2022/11/10 02:18:14;;;;;;;;;25.50;25.50;;;;;10.49;76.57;101320.66;5072973;28;46519;-74
2022/11/10 02:20:46;;;;;;;;;21.00;20.00;;;;;10.48;76.58;101332.09;5073315;27;45367;-74
2022/11/10 02:23:33;;;;;;;;;20.00;20.00;;;;;10.42;77.30;101324.38;5089089;27;45280;-73
2022/11/10 02:25:58;;;;;;;;;23.00;22.00;;;;;10.41;76.78;101322.63;5066165;27;45532;-80
2022/11/10 02:28:26;;;;;;;;;22.75;21.75;;;;;10.42;77.53;101324.38;5063209;27;45522;-79
2022/11/10 02:30:52;;;;;;;;;23.00;21.75;;;;;10.40;77.44;101325.28;5055282;28;45458;-74
2022/11/10 02:33:17;;;;;;;;;20.00;20.00;;;;;10.40;77.21;101327.94;5053845;28;45375;-80
2022/11/10 02:35:46;;;;;;;;;20.25;20.25;;;;;10.40;77.45;101322.66;5056512;28;45352;-72
2022/11/10 02:38:13;;;;;;;;;21.00;21.00;;;;;10.23;77.34;101300.28;5064588;28;46535;-73
2022/11/10 02:40:38;;;;;;;;;21.75;21.00;;;;;10.35;77.47;101321.00;5060298;28;45556;-72
2022/11/10 02:43:06;;;;;;;;;23.50;21.00;;;;;10.33;76.88;101320.16;5057418;28;45445;-79
2022/11/10 02:45:31;;;;;;;;;22.25;21.50;;;;;10.31;77.66;101329.88;5057868;28;45603;-74
2022/11/10 02:47:56;;;;;;;;;20.75;20.75;;;;;10.31;77.47;101327.25;5056329;28;47095;-78
2022/11/10 02:50:22;;;;;;;;;19.75;19.75;;;;;10.31;77.99;101329.88;5057439;28;45452;-78
2022/11/10 02:52:47;;;;;;;;;19.75;19.75;;;;;10.23;77.82;101319.59;5057837;28;45218;-76
2022/11/10 02:55:12;;;;;;;;;21.25;21.25;;;;;10.26;77.54;101331.75;5059891;28;45377;-75
2022/11/10 02:57:38;;;;;;;;;32.25;31.25;;;;;10.23;78.21;101332.72;5062389;28;46319;-75
2022/11/10 03:00:05;;;;;;;;;20.25;20.25;;;;;10.20;77.80;101332.81;5075691;28;45251;-77
2022/11/10 03:02:30;;;;;;;;;22.75;22.25;;;;;10.18;78.04;101337.25;5058443;28;45383;-78
2022/11/10 03:04:56;;;;;;;;;21.00;21.00;;;;;10.17;78.35;101342.53;5059566;28;45296;-79
2022/11/10 03:07:21;;;;;;;;;20.50;20.25;;;;;10.18;78.43;101341.63;5058508;28;45394;-75
2022/11/10 03:09:46;;;;;;;;;20.00;19.00;;;;;10.12;77.98;101321.63;5057647;28;45361;-77
2022/11/10 03:12:12;;;;;;;;;18.50;18.50;;;;;10.12;78.14;101328.63;5058975;28;45304;-83
2022/11/10 03:14:37;;;;;;;;;19.50;19.50;;;;;10.12;78.52;101334.78;5059116;28;45501;-77
2022/11/10 03:17:03;;;;;;;;;19.00;18.25;;;;;10.10;78.37;101331.31;5061774;28;45598;-73
2022/11/10 03:19:28;;;;;;;;;18.00;18.00;;;;;10.08;78.20;101339.25;5058364;28;45466;-74
2022/11/10 03:21:53;;;;;;;;;16.75;16.75;;;;;10.06;78.26;101333.16;5056798;28;46793;-80
2022/11/10 03:24:19;;;;;;;;;19.50;19.50;;;;;10.03;78.32;101333.25;5059994;28;45347;-80
2022/11/10 03:26:44;;;;;;;;;19.00;19.00;;;;;9.99;78.75;101328.97;5060695;28;45334;-83
2022/11/10 03:29:09;;;;;;;;;21.00;21.00;;;;;9.95;78.84;101343.09;5059022;28;45336;-72
2022/11/10 03:31:35;;;;;;;;;16.00;15.25;;;;;9.97;78.83;101357.06;5057131;28;45270;-72
2022/11/10 03:34:00;;;;;;;;;18.25;18.25;;;;;9.89;78.87;101337.97;5057298;28;45575;-73
2022/11/10 03:36:25;;;;;;;;;22.25;22.25;;;;;9.93;79.21;101345.75;5057129;28;45545;-75
2022/11/10 03:38:51;;;;;;;;;20.50;19.75;;;;;9.88;78.62;101344.16;5058898;28;45509;-72
2022/11/10 03:41:16;;;;;;;;;17.75;17.75;;;;;9.84;78.91;101345.13;5090196;27;45385;-74
2022/11/10 03:43:41;;;;;;;;;18.00;18.00;;;;;9.80;78.94;101346.94;5057434;28;45595;-72
2022/11/10 03:46:08;;;;;;;;;20.50;19.75;;;;;9.83;79.06;101351.28;5057920;28;46522;-73
2022/11/10 03:48:33;;;;;;;;;17.25;16.00;;;;;9.84;79.29;101368.78;5058295;28;45216;-74
2022/11/10 03:50:58;;;;;;;;;19.25;17.50;;;;;9.82;79.23;101360.06;5058291;28;45311;-72
2022/11/10 03:53:24;;;;;;;;;17.25;17.25;;;;;9.79;79.23;101351.34;5057225;28;45421;-72
2022/11/10 03:55:49;;;;;;;;;16.00;16.00;;;;;9.74;79.45;101349.72;5058520;28;45446;-74
2022/11/10 03:58:14;;;;;;;;;20.75;20.75;;;;;9.78;79.88;101362.75;5061652;28;45220;-72
2022/11/10 04:00:40;;;;;;;;;20.25;18.00;;;;;9.74;79.40;101360.22;5060676;28;45220;-71
2022/11/10 04:03:05;;;;;;;;;15.50;15.50;;;;;9.74;79.55;101376.00;5059730;28;45597;-77
2022/11/10 04:11:01;;;;;;;;;18.00;17.75;;;;;9.70;79.70;101376.97;5056146;28;45283;-73
2022/11/10 04:16:15;;;;;;;;;17.50;17.50;;;;;9.60;80.30;101365.84;5074302;27;46024;-72
2022/11/10 04:18:41;;;;;;;;;16.25;16.25;;;;;9.64;80.21;101378.84;5055965;28;45395;-72
2022/11/10 04:21:06;;;;;;;;;18.75;18.75;;;;;9.64;80.17;101381.47;5056459;28;45252;-71
2022/11/10 04:23:35;;;;;;;;;18.75;18.75;;;;;9.61;80.11;101376.28;5056268;28;45363;-73
2022/11/10 04:28:51;;;;;;;;;16.25;16.25;;;;;9.52;80.68;101371.25;5056983;28;45350;-72
2022/11/10 04:31:18;;;;;;;;;16.25;16.25;;;;;9.55;80.57;101383.47;5054909;28;45297;-73
2022/11/10 04:33:44;;;;;;;;;15.00;15.00;;;;;9.54;80.54;101379.09;5057621;28;45532;-76
2022/11/10 04:36:12;;;;;;;;;15.75;15.75;;;;;9.53;80.62;101383.50;5058460;28;45319;-79
2022/11/10 04:38:38;;;;;;;;;16.50;16.50;;;;;9.45;80.82;101378.41;5059303;28;45379;-84
2022/11/10 04:41:05;;;;;;;;;14.25;14.25;;;;;9.54;80.45;101400.09;5059153;28;45373;-78
2022/11/10 04:43:30;;;;;;;;;16.75;15.00;;;;;9.51;80.82;101395.78;5056588;28;45270;-73
2022/11/10 04:45:56;;;;;;;;;14.50;14.50;;;;;9.47;80.60;101400.22;5055896;28;46501;-74
2022/11/10 04:48:22;;;;;;;;;15.00;14.50;;;;;9.49;80.99;101414.19;5056228;28;45240;-78
2022/11/10 04:50:48;;;;;;;;;13.00;13.00;;;;;9.50;81.00;101410.66;5056493;28;45253;-77
2022/11/10 04:53:13;;;;;;;;;14.75;14.75;;;;;9.49;80.52;101413.34;5058604;28;45486;-78
2022/11/10 04:55:41;;;;;;;;;14.25;14.25;;;;;9.46;80.70;101416.03;5056665;28;45575;-78
2022/11/10 04:58:06;;;;;;;;;17.00;16.00;;;;;9.47;80.80;101417.78;5056510;28;45718;-81
2022/11/10 05:00:33;;;;;;;;;15.75;15.75;;;;;9.43;80.53;101419.59;5058546;28;45440;-78
2022/11/10 05:02:59;;;;;;;;;12.25;12.25;;;;;9.45;80.83;101416.94;5059414;28;45603;-74
2022/11/10 05:05:25;;;;;;;;;17.50;17.50;;;;;9.42;80.76;101420.47;5063194;28;45358;-75
2022/11/10 05:07:50;;;;;;;;;13.50;13.50;;;;;9.37;81.20;101419.72;5072539;28;45343;-76
2022/11/10 05:10:15;;;;;;;;;14.50;14.50;;;;;9.37;80.89;101432.84;5073468;27;45251;-78
2022/11/10 05:12:41;;;;;;;;;14.25;13.00;;;;;9.37;81.00;101430.22;5059522;28;45261;-73
2022/11/10 05:15:07;;;;;;;;;15.25;15.00;;;;;9.33;80.98;101439.94;5063236;28;45445;-73
2022/11/10 05:17:32;;;;;;;;;14.50;14.50;;;;;9.32;80.84;101440.84;5058452;28;45276;-78
2022/11/10 05:19:57;;;;;;;;;15.75;14.50;;;;;9.34;80.84;101460.06;5056058;28;45386;-78
2022/11/10 05:22:23;;;;;;;;;20.00;20.00;;;;;9.32;80.79;101447.84;5059316;28;45390;-79
2022/11/10 05:24:48;;;;;;;;;14.00;14.00;;;;;9.29;81.01;101442.66;5076959;27;45591;-80
2022/11/10 05:27:13;;;;;;;;;17.25;17.25;;;;;9.30;81.35;101463.63;5076208;27;45436;-82
2022/11/10 05:29:38;;;;;;;;;18.50;18.50;;;;;9.23;81.25;101450.66;5078909;27;45362;-80
2022/11/10 05:32:04;;;;;;;;;17.50;17.50;;;;;9.28;81.45;101459.31;5076863;28;45606;-78
2022/11/10 05:34:29;;;;;;;;;18.00;17.75;;;;;9.28;81.23;101469.81;5075909;27;46191;-76
2022/11/10 05:36:54;;;;;;;;;15.75;15.75;;;;;9.19;81.11;101460.38;5077238;28;45160;-77
2022/11/10 05:39:20;;;;;;;;;14.25;14.00;;;;;9.20;81.20;101460.31;5057893;27;45762;-74
2022/11/10 05:41:45;;;;;;;;;12.50;12.50;;;;;9.17;81.19;101460.38;5087019;27;45379;-77
2022/11/10 05:44:11;;;;;;;;;17.00;17.00;;;;;9.15;81.28;101462.19;5055550;28;54768;-78
2022/11/10 05:46:36;;;;;;;;;15.00;14.25;;;;;9.20;81.51;101480.47;5056870;28;45480;-75
2022/11/10 05:49:01;;;;;;;;;16.00;16.00;;;;;9.18;81.88;101469.13;5071902;28;45274;-79
2022/11/10 05:51:27;;;;;;;;;15.50;15.50;;;;;9.16;81.70;101468.31;5055804;28;45416;-76
2022/11/10 05:53:52;;;;;;;;;17.25;17.25;;;;;9.15;81.71;101474.44;5087295;27;47446;-73
2022/11/10 05:56:18;;;;;;;;;17.75;17.75;;;;;9.16;81.96;101487.53;5053224;28;45346;-76
2022/11/10 05:58:43;;;;;;;;;17.75;17.25;;;;;9.09;81.79;101475.44;5054384;28;45322;-72
2022/11/10 06:01:08;;;;;;;;;16.00;16.00;;;;;9.12;81.94;101487.63;5055164;28;45388;-73
2022/11/10 06:03:34;;;;;;;;;14.25;14.25;;;;;9.09;81.90;101479.81;5056133;28;46274;-75
2022/11/10 06:05:59;;;;;;;;;14.75;14.75;;;;;9.11;81.72;101480.66;5055450;28;45581;-76
2022/11/10 06:08:25;;;;;;;;;17.25;17.25;;;;;9.08;81.95;101478.94;5057328;28;45288;-75
2022/11/10 06:10:50;;;;;;;;;15.50;15.50;;;;;9.12;82.02;101480.63;5056554;28;45614;-74
2022/11/10 06:13:15;;;;;;;;;16.00;16.00;;;;;9.10;82.23;101484.19;5058231;28;45580;-77
2022/11/10 06:15:41;;;;;;;;;17.25;17.25;;;;;9.10;82.14;101485.03;5054877;28;45442;-77
2022/11/10 06:18:06;;;;;;;;;18.00;17.75;;;;;9.10;82.06;101490.28;5086991;27;45371;-75
2022/11/10 06:20:31;;;;;;;;;17.75;17.75;;;;;9.07;82.07;101490.34;5054673;28;45317;-75
2022/11/10 06:22:58;;;;;;;;;15.75;15.75;;;;;9.11;82.04;101497.25;5052615;28;45995;-73
2022/11/10 06:25:24;;;;;;;;;16.50;16.50;;;;;9.11;82.08;101491.16;5054498;28;45328;-73
2022/11/10 06:27:49;;;;;;;;;15.75;15.75;;;;;9.06;82.16;101488.59;5055292;28;45347;-75
2022/11/10 06:30:15;;;;;;;;;19.25;18.50;;;;;9.05;82.12;101486.88;5053139;28;45381;-75
2022/11/10 06:32:44;;;;;;;;;17.25;16.50;;;;;9.09;82.17;101504.28;5054704;28;45399;-74
2022/11/10 06:35:10;;;;;;;;;18.00;17.75;;;;;9.07;81.99;101506.09;5054502;28;45492;-74
2022/11/10 06:37:37;;;;;;;;;15.00;15.00;;;;;9.04;82.59;101501.78;5055084;28;45338;-77
2022/11/10 06:40:05;;;;;;;;;17.25;17.00;;;;;8.97;82.36;101492.25;5056093;28;45493;-83
2022/11/10 06:42:30;;;;;;;;;18.25;18.25;;;;;8.97;82.20;101509.78;5056765;28;45835;-77
2022/11/10 06:44:55;;;;;;;;;17.25;17.25;;;;;8.99;82.11;101513.25;5055117;28;45320;-75
2022/11/10 06:47:21;;;;;;;;;15.75;15.25;;;;;8.99;82.26;101524.59;5055296;28;45316;-85
2022/11/10 06:49:46;;;;;;;;;19.50;19.50;;;;;9.03;82.48;101528.91;5054539;28;45617;-75
2022/11/10 06:52:11;;;;;;;;;16.75;16.75;;;;;8.96;82.32;101523.78;5054926;28;46501;-75
2022/11/10 06:54:37;;;;;;;;;20.00;20.00;;;;;9.01;82.17;101535.06;5054975;28;45350;-78
2022/11/10 06:57:02;;;;;;;;;16.75;16.75;;;;;9.01;82.00;101542.94;5086761;27;45749;-79
2022/11/10 06:59:27;;;;;;;;;21.00;19.25;;;;;9.00;82.08;101546.47;5094709;27;45361;-78
2022/11/10 07:01:53;;;;;;;;;15.75;15.75;;;;;9.00;82.14;101549.94;5094049;27;46440;-77
2022/11/10 07:04:18;;;;;;;;;17.50;16.50;;;;;8.97;82.18;101555.25;5093494;27;45497;-75
2022/11/10 07:06:45;;;;;;;;;18.25;16.00;;;;;8.98;82.24;101561.38;5094109;27;45396;-73
2022/11/10 07:09:10;;;;;;;;;14.00;14.00;;;;;9.00;82.71;101568.31;5094593;27;45282;-75
2022/11/10 07:11:36;;;;;;;;;17.50;17.50;;;;;8.90;82.14;101551.88;5093873;27;46311;-76
2022/11/10 07:14:01;;;;;;;;;12.75;12.75;;;;;8.94;82.35;101560.53;5092205;27;45314;-74
2022/11/10 07:16:27;;;;;;;;;19.25;19.25;;;;;9.00;82.57;101575.34;5092351;27;45287;-75
2022/11/10 07:18:52;;;;;;;;;17.25;17.25;;;;;8.99;82.47;101578.84;5094342;27;45363;-75
2022/11/10 07:21:17;;;;;;;;;19.50;19.50;;;;;9.05;82.36;101589.22;5093637;27;45315;-76
2022/11/10 07:23:43;;;;;;;;;15.50;15.50;;;;;8.99;82.46;101576.22;5096865;27;45258;-71
2022/11/10 07:26:08;;;;;;;;;35.75;32.25;;;;;9.09;82.36;101595.31;5097569;27;45246;-74
2022/11/10 07:28:34;;;;;;;;;19.50;19.50;;;;;9.08;82.31;101590.97;5097679;27;45320;-72
2022/11/10 07:31:02;;;;;;;;;19.75;19.75;;;;;9.10;82.44;101581.28;5096514;27;46162;-76
2022/11/10 07:33:27;;;;;;;;;19.00;19.00;;;;;9.14;82.24;101591.69;5097153;27;45412;-73
2022/11/10 07:35:59;;;;;;;;;20.00;20.00;;;;;9.14;82.61;101599.56;5097674;27;45318;-72
2022/11/10 07:38:24;;;;;;;;;18.75;18.75;;;;;9.17;82.34;101599.50;5097580;27;45364;-74
2022/11/10 07:40:51;;;;;;;;;20.00;19.50;;;;;9.18;82.23;101606.50;5097176;27;46062;-76
2022/11/10 07:43:18;;;;;;;;;20.50;20.50;;;;;9.17;81.98;101610.00;5097034;27;45410;-76
2022/11/10 07:45:43;;;;;;;;;23.25;21.75;;;;;9.21;82.09;101618.72;5085935;27;45517;-77
2022/11/10 07:48:09;;;;;;;;;20.00;20.00;;;;;9.19;82.08;101605.59;5070037;27;45775;-73
2022/11/10 07:50:34;;;;;;;;;21.50;21.50;;;;;9.19;81.86;101613.47;5059732;28;45495;-77
2022/11/10 07:53:08;;;;;;;;;25.25;23.50;;;;;9.24;81.39;101623.91;5067390;28;48840;-81
2022/11/10 07:55:36;;;;;;;;;22.50;22.50;;;;;9.29;81.81;101632.56;5094345;27;45362;-75
2022/11/10 07:58:01;;;;;;;;;27.75;26.75;;;;;9.30;81.65;101634.31;5095099;27;45535;-74
2022/11/10 08:00:27;;;;;;;;;24.75;24.75;;;;;9.30;82.14;101643.91;5078351;27;46453;-72
2022/11/10 08:02:52;;;;;;;;;24.50;24.25;;;;;9.32;81.77;101645.66;5073730;27;45948;-78
2022/11/10 08:05:18;;;;;;;;;20.25;20.25;;;;;9.34;81.63;101654.34;5068760;27;45278;-74
2022/11/10 08:07:44;;;;;;;;;23.50;23.50;;;;;9.34;81.53;101661.34;5080307;27;45554;-74
2022/11/10 08:10:09;;;;;;;;;25.50;25.00;;;;;9.38;81.67;101663.03;5084643;27;45242;-75
2022/11/10 08:12:35;;;;;;;;;22.00;21.75;;;;;9.44;81.49;101677.81;5096146;27;45453;-76
2022/11/10 08:15:02;;;;;;;;;18.75;18.75;;;;;9.45;81.48;101684.81;5083708;27;45345;-75
2022/11/10 08:17:27;;;;;;;;;26.00;25.50;;;;;9.47;81.99;101689.13;5075686;27;45456;-75
2022/11/10 08:19:53;;;;;;;;;27.75;27.75;;;;;9.48;81.18;101685.59;5070167;27;45567;-73
2022/11/10 08:22:18;;;;;;;;;21.75;21.75;;;;;9.52;81.54;101688.19;5070872;27;45540;-74
2022/11/10 08:24:44;;;;;;;;;27.25;26.75;;;;;9.52;81.28;101690.81;5072070;27;46159;-74
2022/11/10 08:27:09;;;;;;;;;26.50;26.50;;;;;9.54;81.43;101697.78;5072894;27;45567;-75
2022/11/10 08:29:34;;;;;;;;;31.25;30.75;;;;;9.55;81.58;101698.66;5088723;27;46179;-79
2022/11/10 08:32:00;;;;;;;;;30.50;30.50;;;;;9.50;81.13;101691.69;5065864;27;45467;-79
2022/11/10 08:34:25;;;;;;;;;25.25;24.50;;;;;9.60;81.42;101700.28;5057751;28;45432;-80
2022/11/10 08:36:52;;;;;;;;;27.25;27.25;;;;;9.61;81.37;101695.91;5058474;28;45550;-81
2022/11/10 08:39:17;;;;;;;;;26.00;26.00;;;;;9.69;81.25;101712.41;5057935;28;45343;-79
2022/11/10 08:41:43;;;;;;;;;26.75;26.75;;;;;9.71;81.21;101701.84;5057121;28;45415;-81
2022/11/10 08:44:08;;;;;;;;;31.00;30.75;;;;;9.48;80.81;101675.09;5055965;28;45314;-80
2022/11/10 08:46:34;;;;;;;;;29.50;28.25;;;;;9.74;80.54;101707.94;5055546;28;45548;-81
2022/11/10 08:48:59;;;;;;;;;33.75;32.50;;;;;9.67;80.52;101695.81;5056956;27;45391;-79
2022/11/10 08:51:24;;;;;;;;;45.25;38.00;;;;;9.61;80.73;101682.78;5056825;28;45469;-80
2022/11/10 08:53:50;;;;;;;;;33.00;31.00;;;;;9.78;80.09;101720.13;5055472;28;45956;-79
2022/11/10 08:56:15;;;;;;;;;41.00;36.00;;;;;9.77;80.67;101721.00;5056263;28;45544;-79
2022/11/10 08:58:40;;;;;;;;;35.25;33.25;;;;;9.80;80.16;101730.59;5054368;28;47241;-79
2022/11/10 09:01:10;;;;;;;;;38.75;35.25;;;;;9.70;79.95;101710.63;5057141;28;45284;-79
2022/11/10 09:03:36;;;;;;;;;42.75;37.75;;;;;9.83;80.26;101732.31;5057088;28;45422;-81
2022/11/10 09:06:01;;;;;;;;;37.75;34.75;;;;;9.65;80.25;101702.84;5057055;28;45417;-80
2022/11/10 09:08:27;;;;;;;;;39.50;36.00;;;;;9.73;80.44;101726.34;5057202;28;45433;-80
2022/11/10 09:10:53;;;;;;;;;42.25;37.50;;;;;9.74;80.29;101726.31;5056801;28;45311;-80
2022/11/10 09:13:20;;;;;;;;;37.50;34.25;;;;;9.81;80.78;101739.34;5057265;28;45254;-81
2022/11/10 09:15:46;;;;;;;;;41.75;36.75;;;;;9.88;80.27;101751.47;5055150;28;45315;-80
2022/11/10 09:18:13;;;;;;;;;34.75;33.75;;;;;9.73;80.28;101727.22;5056127;28;46125;-81
2022/11/10 09:20:39;;;;;;;;;41.75;37.75;;;;;9.80;80.84;101738.47;5055793;28;45488;-80
2022/11/10 09:23:10;;;;;;;;;39.75;34.75;;;;;9.87;80.50;101744.50;5088760;27;45317;-80
2022/11/10 09:25:37;;;;;;;;;39.75;36.00;;;;;9.82;80.35;101748.97;5057281;28;45600;-80
2022/11/10 09:28:03;;;;;;;;;44.50;38.25;;;;;9.94;80.95;101761.88;5056651;28;45420;-80
2022/11/10 09:30:28;;;;;;;;;46.75;39.75;;;;;9.97;81.00;101766.19;5058131;28;45417;-81
2022/11/10 09:32:56;;;;;;;;;36.00;34.50;;;;;9.99;81.04;101764.41;5056584;28;45382;-80
2022/11/10 09:35:22;;;;;;;;;41.00;35.75;;;;;10.01;80.89;101758.25;5088745;27;45484;-81
2022/11/10 09:37:48;;;;;;;;;39.25;35.00;;;;;9.99;80.95;101754.78;5055201;28;46452;-79
2022/11/10 09:40:20;;;;;;;;;39.50;36.25;;;;;10.00;80.40;101751.25;5054695;28;45352;-80
2022/11/10 09:42:46;;;;;;;;;36.50;33.00;;;;;10.06;80.41;101769.53;5057264;28;45491;-80
2022/11/10 09:45:11;;;;;;;;;46.00;39.00;;;;;10.05;80.42;101770.44;5055793;28;45334;-80
2022/11/10 09:47:46;;;;;;;;;55.50;46.75;;;;;10.04;80.64;101762.56;5055735;28;45417;-80
2022/11/10 09:50:26;;;;;;;;;34.00;33.00;;;;;10.13;80.91;101777.31;5055648;28;45868;-80
2022/11/10 09:52:53;;;;;;;;;31.75;29.25;;;;;10.15;80.61;101773.75;5087851;27;45417;-81
2022/11/10 09:55:32;;;;;;;;;41.25;36.25;;;;;10.14;80.86;101769.41;5054077;28;45375;-79
2022/11/10 09:57:59;;;;;;;;;38.50;35.25;;;;;9.92;80.60;101737.38;5056016;28;45605;-80
2022/11/10 10:00:29;;;;;;;;;35.75;33.25;;;;;10.22;80.41;101775.38;5055813;28;45355;-80
2022/11/10 10:03:00;;;;;;;;;43.25;37.50;;;;;10.28;80.03;101778.78;5055563;28;45382;-80
2022/11/10 10:05:54;;;;;;;;;49.00;39.25;;;;;10.34;80.48;101776.88;5055790;28;45293;-80
2022/11/10 10:08:32;;;;;;;;;41.25;37.50;;;;;10.26;79.86;101763.00;5089339;27;47507;-79
2022/11/10 10:11:20;;;;;;;;;35.25;32.50;;;;;10.34;80.10;101769.00;5056163;28;45358;-80
2022/11/10 10:14:15;;;;;;;;;43.25;36.00;;;;;10.54;79.56;101794.03;5055565;28;45380;-80
2022/11/10 10:17:04;;;;;;;;;43.75;38.50;;;;;10.51;79.80;101784.47;5037088;28;45791;-81
2022/11/10 10:19:53;;;;;;;;;40.25;35.00;;;;;10.66;79.19;101809.59;5060866;28;45564;-79
2022/11/10 10:22:40;;;;;;;;;52.25;44.25;;;;;10.72;79.05;101813.00;5062037;28;45478;-80
2022/11/10 10:25:15;;;;;;;;;44.00;39.25;;;;;10.76;79.90;101819.94;5089353;27;45458;-80
2022/11/10 10:27:44;;;;;;;;;36.50;33.50;;;;;10.71;79.17;101804.22;5055494;28;45420;-80
2022/11/10 10:30:19;;;;;;;;;34.25;32.50;;;;;10.88;78.67;101824.06;5055076;28;46155;-80
2022/11/10 10:32:44;;;;;;;;;45.00;38.75;;;;;10.92;78.92;101820.47;5054720;28;45355;-80
2022/11/10 10:35:14;;;;;;;;;39.75;35.75;;;;;10.98;78.81;101830.00;5053565;28;45367;-79
2022/11/10 10:38:01;;;;;;;;;42.75;38.25;;;;;10.92;78.54;101821.34;5088919;27;45584;-80
2022/11/10 10:40:26;;;;;;;;;44.25;39.00;;;;;11.03;78.39;101834.25;5055780;28;46241;-80
2022/11/10 10:42:52;;;;;;;;;36.00;34.25;;;;;10.96;78.55;101827.38;5056158;28;45325;-81
2022/11/10 10:45:22;;;;;;;;;34.25;31.75;;;;;11.06;78.16;101849.13;5071824;28;45418;-81
2022/11/10 10:47:52;;;;;;;;;39.25;35.50;;;;;11.06;78.83;101857.03;5054979;28;45463;-80
2022/11/10 10:50:23;;;;;;;;;31.00;31.00;;;;;11.08;78.58;101852.59;5088228;27;48115;-80
2022/11/10 10:53:15;;;;;;;;;40.50;35.75;;;;;11.06;78.60;101844.72;5054636;28;45330;-80
2022/11/10 10:56:03;;;;;;;;;49.50;42.25;;;;;11.12;78.53;101849.00;5054948;28;45369;-81
2022/11/10 10:58:50;;;;;;;;;36.50;34.00;;;;;11.09;78.48;101833.25;5058286;28;45311;-79
2022/11/10 11:01:15;;;;;;;;;41.00;37.25;;;;;11.21;78.91;101835.63;5057832;28;45457;-80
2022/11/10 11:03:45;;;;;;;;;39.75;35.50;;;;;11.27;78.22;101844.28;5058887;28;45467;-81
2022/11/10 11:06:14;;;;;;;;;34.75;33.00;;;;;11.31;78.59;101836.28;5058898;28;45213;-81
2022/11/10 11:08:59;;;;;;;;;31.75;31.50;;;;;11.34;77.92;101828.31;5091188;27;45448;-81
2022/11/10 11:11:26;;;;;;;;;30.75;30.75;;;;;11.35;78.23;101835.31;5059069;28;46340;-82
2022/11/10 11:13:52;;;;;;;;;36.50;33.50;;;;;11.28;77.88;101811.78;5091856;27;45372;-81
2022/11/10 11:16:17;;;;;;;;;36.50;34.25;;;;;11.19;78.15;101778.63;5061824;28;45186;-81
2022/11/10 11:18:43;;;;;;;;;38.25;34.50;;;;;11.54;78.16;101826.97;5060323;28;45559;-81
2022/11/10 11:21:20;;;;;;;;;33.75;32.50;;;;;11.66;77.95;101829.31;5058538;28;45252;-81
2022/11/10 11:23:48;;;;;;;;;38.25;33.50;;;;;11.76;77.57;101832.59;5059097;28;45248;-80
2022/11/10 11:26:43;;;;;;;;;38.50;34.50;;;;;11.89;77.16;101829.63;5060227;28;45352;-80
2022/11/10 11:29:14;;;;;;;;;35.75;32.75;;;;;11.99;77.09;101828.50;5060559;28;45412;-80